createdAt,value
2019-05-21T00:00:26.238Z,19.10
2019-05-21T00:02:54.965Z,17.10
2019-05-21T00:05:23.745Z,17.80
2019-05-21T00:07:52.516Z,19.23
2019-05-21T00:10:21.241Z,21.83
2019-05-21T00:12:49.946Z,18.33
2019-05-21T00:15:18.664Z,21.13
2019-05-21T00:17:47.378Z,15.57
2019-05-21T00:20:17.489Z,18.50
2019-05-21T00:22:46.272Z,17.00
2019-05-21T00:25:17.164Z,18.27
2019-05-21T00:27:45.410Z,18.17
2019-05-21T00:30:50.345Z,19.00
2019-05-21T00:33:55.505Z,17.83
2019-05-21T00:37:01.763Z,21.03
2019-05-21T00:40:07.011Z,19.77
2019-05-21T00:42:38.653Z,20.17
2019-05-21T00:45:09.756Z,20.37
2019-05-21T00:47:38.471Z,18.37
2019-05-21T00:50:08.282Z,20.50
2019-05-21T00:52:37.010Z,19.20
2019-05-21T00:55:07.294Z,19.07
2019-05-21T00:57:36.097Z,19.73
2019-05-21T01:00:06.895Z,18.77
2019-05-21T01:02:35.729Z,18.17
2019-05-21T01:05:05.266Z,19.17
2019-05-21T01:07:33.980Z,20.27
2019-05-21T01:10:02.821Z,19.43
2019-05-21T01:12:31.598Z,21.63
2019-05-21T01:15:00.305Z,21.30
2019-05-21T01:17:29.002Z,19.17
2019-05-21T01:19:57.740Z,20.87
2019-05-21T01:22:26.440Z,19.40
2019-05-21T01:24:55.155Z,21.87
2019-05-21T01:27:23.872Z,24.03
2019-05-21T01:29:52.649Z,27.17
2019-05-21T01:32:21.356Z,25.37
2019-05-21T01:34:50.069Z,23.00
2019-05-21T01:37:18.769Z,20.63
2019-05-21T01:39:47.489Z,20.70
2019-05-21T01:42:16.249Z,23.47
2019-05-21T01:44:44.985Z,24.07
2019-05-21T01:47:13.689Z,24.90
2019-05-21T01:49:42.462Z,24.93
2019-05-21T01:52:11.175Z,22.43
2019-05-21T01:54:39.881Z,22.30
2019-05-21T01:57:08.671Z,24.23
2019-05-21T01:59:37.439Z,22.03
2019-05-21T02:02:06.160Z,23.20
2019-05-21T02:04:34.874Z,25.60
2019-05-21T02:07:03.640Z,23.07
2019-05-21T02:09:34.007Z,25.90
2019-05-21T02:12:02.718Z,23.30
2019-05-21T02:14:31.505Z,23.67
2019-05-21T02:17:00.216Z,22.63
2019-05-21T02:19:28.933Z,24.63
2019-05-21T02:21:57.709Z,23.17
2019-05-21T02:24:26.432Z,25.70
2019-05-21T02:26:55.133Z,24.37
2019-05-21T02:29:23.857Z,23.77
2019-05-21T02:31:52.625Z,24.23
2019-05-21T02:34:21.361Z,22.40
2019-05-21T02:36:50.132Z,21.47
2019-05-21T02:39:18.833Z,21.97
2019-05-21T02:41:47.621Z,24.77
2019-05-21T02:44:16.395Z,22.37
2019-05-21T02:46:45.106Z,25.43
2019-05-21T02:49:13.809Z,24.20
2019-05-21T02:51:42.530Z,25.47
2019-05-21T02:54:11.309Z,23.50
2019-05-21T02:56:40.081Z,24.30
2019-05-21T02:59:08.879Z,24.27
2019-05-21T03:01:39.218Z,21.00
2019-05-21T03:04:08.043Z,22.37
2019-05-21T03:06:36.770Z,25.03
2019-05-21T03:09:06.441Z,22.60
2019-05-21T03:11:35.259Z,25.00
2019-05-21T03:14:03.969Z,24.03
2019-05-21T03:16:32.766Z,22.53
2019-05-21T03:19:01.468Z,25.40
2019-05-21T03:21:30.189Z,23.37
2019-05-21T03:23:58.968Z,23.80
2019-05-21T03:26:27.692Z,24.77
2019-05-21T03:28:56.414Z,24.10
2019-05-21T03:31:25.148Z,28.57
2019-05-21T03:33:53.919Z,26.47
2019-05-21T03:36:33.489Z,23.87
2019-05-21T03:38:53.074Z,26.77
2019-05-21T03:41:21.791Z,27.07
2019-05-21T03:43:50.501Z,25.93
2019-05-21T03:46:19.317Z,26.20
2019-05-21T03:48:48.021Z,30.47
2019-05-21T03:51:17.362Z,25.30
2019-05-21T03:53:46.073Z,31.10
2019-05-21T03:56:14.779Z,25.87
2019-05-21T03:58:43.505Z,30.90
2019-05-21T04:01:12.209Z,28.53
2019-05-21T04:03:41.003Z,27.10
2019-05-21T04:06:09.816Z,107.37
2019-05-21T04:08:38.533Z,39.93
2019-05-21T04:11:07.314Z,39.40
2019-05-21T04:13:36.063Z,28.93
2019-05-21T04:16:12.663Z,27.33
2019-05-21T04:18:49.241Z,26.17
2019-05-21T04:21:17.968Z,24.23
2019-05-21T04:23:46.665Z,23.23
2019-05-21T04:26:15.414Z,26.90
2019-05-21T04:28:44.206Z,26.10
2019-05-21T04:31:12.972Z,22.10
2019-05-21T04:33:41.702Z,22.30
2019-05-21T04:36:10.483Z,22.67
2019-05-21T04:38:39.282Z,20.03
2019-05-21T04:41:08.002Z,21.27
2019-05-21T04:43:36.709Z,24.03
2019-05-21T04:46:05.452Z,18.73
2019-05-21T04:48:34.208Z,20.33
2019-05-21T04:51:02.922Z,19.83
2019-05-21T04:53:31.651Z,19.53
2019-05-21T04:56:00.419Z,17.62
2019-05-21T04:58:29.249Z,22.30
2019-05-21T05:00:58.010Z,17.60
2019-05-21T05:03:26.721Z,18.53
2019-05-21T05:05:55.441Z,17.43
2019-05-21T05:08:24.226Z,17.55
2019-05-21T05:10:52.947Z,16.63
2019-05-21T05:13:21.666Z,17.27
2019-05-21T05:15:50.449Z,17.75
2019-05-21T05:18:19.193Z,15.98
2019-05-21T05:20:47.965Z,15.35
2019-05-21T05:23:16.689Z,18.23
2019-05-21T05:25:45.409Z,17.17
2019-05-21T05:28:14.123Z,20.70
2019-05-21T05:30:42.841Z,16.93
2019-05-21T05:33:11.554Z,17.87
2019-05-21T05:35:40.329Z,15.98
2019-05-21T05:38:09.047Z,14.98
2019-05-21T05:40:37.821Z,17.67
2019-05-21T05:43:06.545Z,14.87
2019-05-21T05:45:35.257Z,18.30
2019-05-21T05:48:04.031Z,16.97
2019-05-21T05:50:46.566Z,17.67
2019-05-21T05:53:36.185Z,16.85
2019-05-21T05:56:04.957Z,16.48
2019-05-21T05:58:33.666Z,17.95
2019-05-21T06:01:02.501Z,17.05
2019-05-21T06:03:31.170Z,18.55
2019-05-21T06:06:00.018Z,16.55
2019-05-21T06:08:28.703Z,18.15
2019-05-21T06:10:57.401Z,15.53
2019-05-21T06:13:26.132Z,16.32
2019-05-21T06:15:54.846Z,17.40
2019-05-21T06:18:23.552Z,18.15
2019-05-21T06:20:52.341Z,16.93
2019-05-21T06:23:21.053Z,18.82
2019-05-21T06:25:49.781Z,16.55
2019-05-21T06:28:18.558Z,15.35
2019-05-21T06:30:47.358Z,16.15
2019-05-21T06:33:16.162Z,16.32
2019-05-21T06:35:45.422Z,15.53
2019-05-21T06:38:18.212Z,17.75
2019-05-21T06:40:44.437Z,16.00
2019-05-21T06:43:13.206Z,16.80
2019-05-21T06:45:41.928Z,16.00
2019-05-21T06:48:10.707Z,15.28
2019-05-21T06:50:39.437Z,15.55
2019-05-21T06:53:08.224Z,16.35
2019-05-21T06:55:36.951Z,16.70
2019-05-21T06:58:05.658Z,14.23
2019-05-21T07:00:34.436Z,19.85
2019-05-21T07:03:03.163Z,15.10
2019-05-21T07:05:31.878Z,18.23
2019-05-21T07:08:00.608Z,14.03
2019-05-21T07:10:29.314Z,17.95
2019-05-21T07:12:58.025Z,18.92
2019-05-21T07:15:26.757Z,13.83
2019-05-21T07:17:55.531Z,15.53
2019-05-21T07:20:24.248Z,15.93
2019-05-21T07:22:53.133Z,14.05
2019-05-21T07:25:22.113Z,15.63
2019-05-21T07:27:50.833Z,15.70
2019-05-21T07:30:19.719Z,15.58
2019-05-21T07:32:48.482Z,17.00
2019-05-21T07:35:17.243Z,16.55
2019-05-21T07:37:45.954Z,15.55
2019-05-21T07:40:15.272Z,16.40
2019-05-21T07:42:44.061Z,14.85
2019-05-21T07:45:12.945Z,13.88
2019-05-21T07:47:41.722Z,14.07
2019-05-21T07:50:10.548Z,15.35
2019-05-21T07:52:39.270Z,14.07
2019-05-21T07:55:08.085Z,14.15
2019-05-21T07:57:36.866Z,14.43
2019-05-21T08:00:07.141Z,16.77
2019-05-21T08:02:35.864Z,14.15
2019-05-21T08:05:04.972Z,14.15
2019-05-21T08:07:33.815Z,12.85
2019-05-21T08:10:02.636Z,13.20
2019-05-21T08:12:38.816Z,13.20
2019-05-21T08:15:02.434Z,11.80
2019-05-21T08:17:31.207Z,13.55
2019-05-21T08:20:08.800Z,11.28
2019-05-21T08:22:30.350Z,11.08
2019-05-21T08:24:59.062Z,12.53
2019-05-21T08:27:27.857Z,14.50
2019-05-21T08:29:56.562Z,13.90
2019-05-21T08:32:25.350Z,11.40
2019-05-21T08:34:54.433Z,12.10
2019-05-21T08:37:23.204Z,10.82
2019-05-21T08:39:51.945Z,9.43
2019-05-21T08:42:20.665Z,10.55
2019-05-21T08:44:49.384Z,13.78
2019-05-21T08:47:18.097Z,8.48
2019-05-21T08:49:46.806Z,12.75
2019-05-21T08:52:15.515Z,11.88
2019-05-21T08:54:47.760Z,9.23
2019-05-21T08:57:16.527Z,11.68
2019-05-21T08:59:45.412Z,11.43
2019-05-21T09:02:14.189Z,12.13
2019-05-21T09:04:46.166Z,13.22
2019-05-21T09:07:13.554Z,13.10
2019-05-21T09:09:50.098Z,10.72
2019-05-21T09:12:12.978Z,10.80
2019-05-21T09:14:41.727Z,10.58
2019-05-21T09:17:10.409Z,12.82
2019-05-21T09:19:39.181Z,9.05
2019-05-21T09:22:07.978Z,12.05
2019-05-21T09:24:36.689Z,10.82
2019-05-21T09:27:05.465Z,9.80
2019-05-21T09:29:34.297Z,12.80
2019-05-21T09:32:03.114Z,11.63
2019-05-21T09:34:47.348Z,12.00
2019-05-21T09:37:02.178Z,12.40
2019-05-21T09:39:30.957Z,10.88
2019-05-21T09:41:59.673Z,10.68
2019-05-21T09:44:28.383Z,12.58
2019-05-21T09:46:57.106Z,15.72
2019-05-21T09:49:25.817Z,13.80
2019-05-21T09:51:54.523Z,13.20
2019-05-21T09:54:23.282Z,11.15
2019-05-21T09:56:52.071Z,13.35
2019-05-21T09:59:31.472Z,11.78
2019-05-21T10:02:07.843Z,10.90
2019-05-21T10:04:36.560Z,12.55
2019-05-21T10:07:05.361Z,12.68
2019-05-21T10:09:34.095Z,15.68
2019-05-21T10:12:03.171Z,11.53
2019-05-21T10:14:34.133Z,12.50
2019-05-21T10:17:02.353Z,13.35
2019-05-21T10:19:31.062Z,12.85
2019-05-21T10:21:59.854Z,11.28
2019-05-21T10:24:28.625Z,10.00
2019-05-21T10:26:57.337Z,12.90
2019-05-21T10:29:26.128Z,11.35
2019-05-21T10:31:54.768Z,11.75
2019-05-21T10:34:23.482Z,11.53
2019-05-21T10:36:52.202Z,11.73
2019-05-21T10:39:20.927Z,11.78
2019-05-21T10:41:49.649Z,10.72
2019-05-21T10:44:18.424Z,13.43
2019-05-21T10:46:47.147Z,10.58
2019-05-21T10:49:15.863Z,11.05
2019-05-21T10:51:44.641Z,11.40
2019-05-21T10:54:13.360Z,10.98
2019-05-21T10:56:48.074Z,10.72
2019-05-21T10:59:12.584Z,9.45
2019-05-21T11:01:42.980Z,10.75
2019-05-21T11:04:13.402Z,8.65
2019-05-21T11:06:43.737Z,8.75
2019-05-21T11:09:22.571Z,9.48
2019-05-21T11:11:51.353Z,14.10
2019-05-21T11:14:20.067Z,10.70
2019-05-21T11:16:48.866Z,11.03
2019-05-21T11:19:17.657Z,10.53
2019-05-21T11:21:46.416Z,12.58
2019-05-21T11:24:15.207Z,11.22
2019-05-21T11:26:43.906Z,14.18
2019-05-21T11:29:12.693Z,11.20
2019-05-21T11:31:55.936Z,9.80
2019-05-21T11:34:11.876Z,9.20
2019-05-21T11:36:40.578Z,11.10
2019-05-21T11:39:09.691Z,11.40
2019-05-21T11:41:38.476Z,9.90
2019-05-21T11:44:07.175Z,9.00
2019-05-21T11:46:35.895Z,10.03
2019-05-21T11:49:04.613Z,11.88
2019-05-21T11:51:33.323Z,8.50
2019-05-21T11:54:02.029Z,9.35
2019-05-21T11:56:30.799Z,11.65
2019-05-21T11:58:59.515Z,11.25
2019-05-21T12:01:28.294Z,10.50
2019-05-21T12:03:57.079Z,10.30
2019-05-21T12:06:25.797Z,8.43
2019-05-21T12:08:57.110Z,12.60
2019-05-21T12:11:25.014Z,9.08
2019-05-21T12:13:53.717Z,9.65
2019-05-21T12:16:22.509Z,8.83
2019-05-21T12:18:51.265Z,10.63
2019-05-21T12:21:20.033Z,14.40
2019-05-21T12:23:48.738Z,9.80
2019-05-21T12:26:17.517Z,9.50
2019-05-21T12:28:46.240Z,13.90
2019-05-21T12:31:15.014Z,13.20
2019-05-21T12:33:43.730Z,9.88
2019-05-21T12:36:12.765Z,9.63
2019-05-21T12:38:41.412Z,8.88
2019-05-21T12:41:13.358Z,12.33
2019-05-21T12:43:40.557Z,12.30
2019-05-21T12:46:09.278Z,12.30
2019-05-21T12:48:38.008Z,13.00
2019-05-21T12:51:06.716Z,11.73
2019-05-21T12:53:35.498Z,12.95
2019-05-21T12:56:04.215Z,11.95
2019-05-21T12:58:33.003Z,14.15
2019-05-21T13:01:01.761Z,10.45
2019-05-21T13:03:30.518Z,10.18
2019-05-21T13:05:59.309Z,10.95
2019-05-21T13:08:28.013Z,15.20
2019-05-21T13:10:56.815Z,10.15
2019-05-21T13:13:25.529Z,11.10
2019-05-21T13:15:54.237Z,14.23
2019-05-21T13:18:23.050Z,12.20
2019-05-21T13:20:51.748Z,10.38
2019-05-21T13:23:20.466Z,12.07
2019-05-21T13:25:49.177Z,11.22
2019-05-21T13:28:17.990Z,13.28
2019-05-21T13:30:46.753Z,9.80
2019-05-21T13:33:15.480Z,13.75
2019-05-21T13:35:45.905Z,10.63
2019-05-21T13:38:14.688Z,10.23
2019-05-21T13:40:43.781Z,13.05
2019-05-21T13:43:12.499Z,10.45
2019-05-21T13:45:41.255Z,12.63
2019-05-21T13:48:09.938Z,11.55
2019-05-21T13:50:38.647Z,11.08
2019-05-21T13:53:07.441Z,13.60
2019-05-21T13:55:36.220Z,9.98
2019-05-21T13:58:05.206Z,11.43
2019-05-21T14:00:38.904Z,11.78
2019-05-21T14:03:07.777Z,9.68
2019-05-21T14:05:37.186Z,11.57
2019-05-21T14:08:05.978Z,11.40
2019-05-21T14:10:34.755Z,12.58
2019-05-21T14:13:03.834Z,12.35
2019-05-21T14:15:32.548Z,13.35
2019-05-21T14:18:01.330Z,11.15
2019-05-21T14:20:30.107Z,12.37
2019-05-21T14:22:58.825Z,13.22
2019-05-21T14:25:27.632Z,11.60
2019-05-21T14:27:56.389Z,10.68
2019-05-21T14:30:25.214Z,13.08
2019-05-21T14:32:53.920Z,13.55
2019-05-21T14:35:22.626Z,10.95
2019-05-21T14:37:51.423Z,11.18
2019-05-21T14:40:31.861Z,12.65
2019-05-21T14:42:59.687Z,12.37
2019-05-21T14:45:27.575Z,10.63
2019-05-21T14:47:54.397Z,12.00
2019-05-21T14:50:23.090Z,12.63
2019-05-21T14:52:52.449Z,10.88
2019-05-21T14:55:21.567Z,11.63
2019-05-21T14:57:50.348Z,11.33
2019-05-21T15:00:30.817Z,12.33
2019-05-21T15:02:59.549Z,13.88
2019-05-21T15:05:28.338Z,15.23
2019-05-21T15:07:57.057Z,11.10
2019-05-21T15:10:25.765Z,13.80
2019-05-21T15:12:54.488Z,10.68
2019-05-21T15:15:23.369Z,13.10
2019-05-21T15:17:52.099Z,11.90
2019-05-21T15:20:22.648Z,12.63
2019-05-21T15:22:51.422Z,10.72
2019-05-21T15:25:20.143Z,12.60
2019-05-21T15:27:48.846Z,11.88
2019-05-21T15:30:17.717Z,10.63
2019-05-21T15:32:46.446Z,12.85
2019-05-21T15:35:15.225Z,11.70
2019-05-21T15:37:45.140Z,11.78
2019-05-21T15:40:14.318Z,12.28
2019-05-21T15:42:43.038Z,12.03
2019-05-21T15:45:12.041Z,11.45
2019-05-21T15:47:40.762Z,12.85
2019-05-21T15:50:09.846Z,16.37
2019-05-21T15:52:38.634Z,10.68
2019-05-21T15:55:08.461Z,9.55
2019-05-21T15:57:56.433Z,10.88
2019-05-21T16:00:25.502Z,13.05
2019-05-21T16:02:54.185Z,14.73
2019-05-21T16:05:22.986Z,14.07
2019-05-21T16:07:51.779Z,12.28
2019-05-21T16:10:20.593Z,9.13
2019-05-21T16:12:49.318Z,12.70
2019-05-21T16:15:18.032Z,10.48
2019-05-21T16:17:46.803Z,10.03
2019-05-21T16:20:17.606Z,11.28
2019-05-21T16:22:46.310Z,11.22
2019-05-21T16:25:15.349Z,10.30
2019-05-21T16:27:44.078Z,10.58
2019-05-21T16:30:13.652Z,9.48
2019-05-21T16:32:42.457Z,11.80
2019-05-21T16:35:11.294Z,9.80
2019-05-21T16:37:40.080Z,10.60
2019-05-21T16:40:09.169Z,12.93
2019-05-21T16:42:37.880Z,9.13
2019-05-21T16:45:07.573Z,12.90
2019-05-21T16:47:45.553Z,11.63
2019-05-21T16:50:07.940Z,13.75
2019-05-21T16:52:38.122Z,10.30
2019-05-21T16:55:07.730Z,12.82
2019-05-21T16:57:36.455Z,11.35
2019-05-21T17:00:09.282Z,14.53
2019-05-21T17:02:38.078Z,11.57
2019-05-21T17:05:08.155Z,13.15
2019-05-21T17:07:36.977Z,12.73
2019-05-21T17:10:07.103Z,12.90
2019-05-21T17:12:35.845Z,10.98
2019-05-21T17:15:09.176Z,9.90
2019-05-21T17:17:37.949Z,10.98
2019-05-21T17:20:09.851Z,11.38
2019-05-21T17:22:38.549Z,12.47
2019-05-21T17:25:08.493Z,12.15
2019-05-21T17:27:37.286Z,11.12
2019-05-21T17:30:08.173Z,12.68
2019-05-21T17:32:37.167Z,11.22
2019-05-21T17:35:06.582Z,14.55
2019-05-21T17:37:35.389Z,13.55
2019-05-21T17:40:06.049Z,13.18
2019-05-21T17:42:34.876Z,13.30
2019-05-21T17:45:05.316Z,13.53
2019-05-21T17:47:34.106Z,14.98
2019-05-21T17:50:03.100Z,14.55
2019-05-21T17:52:31.996Z,13.38
2019-05-21T17:55:00.807Z,12.28
2019-05-21T17:57:30.689Z,14.30
2019-05-21T17:59:59.482Z,13.00
2019-05-21T18:02:30.377Z,14.53
2019-05-21T18:04:59.272Z,13.75
2019-05-21T18:07:27.979Z,12.93
2019-05-21T18:09:57.162Z,13.65
2019-05-21T18:12:32.039Z,13.98
2019-05-21T18:14:58.210Z,14.75
2019-05-21T18:17:28.860Z,14.93
2019-05-21T18:19:59.248Z,15.32
2019-05-21T18:22:30.002Z,12.43
2019-05-21T18:24:58.933Z,18.92
2019-05-21T18:27:27.895Z,14.63
2019-05-21T18:29:56.604Z,14.18
2019-05-21T18:32:25.322Z,15.53
2019-05-21T18:34:54.111Z,17.42
2019-05-21T18:37:23.083Z,17.02
2019-05-21T18:39:51.812Z,15.85
2019-05-21T18:42:22.530Z,16.00
2019-05-21T18:44:50.971Z,17.75
2019-05-21T18:47:19.702Z,15.53
2019-05-21T18:49:48.417Z,18.00
2019-05-21T18:52:17.136Z,16.77
2019-05-21T18:54:47.987Z,17.73
2019-05-21T18:57:16.441Z,17.10
2019-05-21T18:59:45.196Z,17.60
2019-05-21T19:02:14.880Z,16.70
2019-05-21T19:04:43.590Z,19.15
2019-05-21T19:07:12.876Z,16.40
2019-05-21T19:09:41.599Z,17.67
2019-05-21T19:12:10.414Z,16.97
2019-05-21T19:14:44.926Z,15.80
2019-05-21T19:17:09.560Z,15.27
2019-05-21T19:19:38.282Z,16.87
2019-05-21T19:22:07.154Z,14.70
2019-05-21T19:24:35.978Z,14.77
2019-05-21T19:27:04.765Z,15.00
2019-05-21T19:29:33.503Z,15.53
2019-05-21T19:32:02.219Z,16.30
2019-05-21T19:34:30.940Z,16.13
2019-05-21T19:36:59.740Z,17.63
2019-05-21T19:39:29.213Z,16.27
2019-05-21T19:41:58.004Z,14.83
2019-05-21T19:44:26.749Z,16.40
2019-05-21T19:46:55.456Z,14.10
2019-05-21T19:49:24.254Z,16.60
2019-05-21T19:51:53.029Z,14.17
2019-05-21T19:54:21.752Z,14.77
2019-05-21T19:56:50.854Z,15.00
2019-05-21T19:59:19.592Z,17.87
2019-05-21T20:01:50.173Z,14.60
2019-05-21T20:04:20.576Z,16.20
2019-05-21T20:06:49.340Z,15.63
2019-05-21T20:09:19.697Z,15.23
2019-05-21T20:11:48.434Z,15.63
2019-05-21T20:14:17.511Z,16.60
2019-05-21T20:16:46.453Z,16.87
2019-05-21T20:19:15.316Z,16.30
2019-05-21T20:21:44.686Z,16.00
2019-05-21T20:24:13.980Z,17.30
2019-05-21T20:26:43.458Z,16.97
2019-05-21T20:29:12.750Z,16.10
2019-05-21T20:31:41.562Z,17.83
2019-05-21T20:34:11.713Z,16.13
2019-05-21T20:36:40.995Z,15.20
2019-05-21T20:39:11.509Z,17.03
2019-05-21T20:41:40.896Z,16.57
2019-05-21T20:44:11.254Z,16.30
2019-05-21T20:46:40.962Z,14.57
2019-05-21T20:49:10.249Z,19.83
2019-05-21T20:51:40.418Z,15.60
2019-05-21T20:54:11.450Z,16.50
2019-05-21T20:56:40.191Z,22.43
2019-05-21T20:59:08.988Z,17.97
2019-05-21T21:01:38.166Z,16.37
2019-05-21T21:04:07.356Z,17.33
2019-05-21T21:06:37.324Z,18.13
2019-05-21T21:09:08.793Z,16.63
2019-05-21T21:11:38.030Z,15.17
2019-05-21T21:14:17.621Z,17.67
2019-05-21T21:16:39.004Z,15.67
2019-05-21T21:19:08.648Z,18.10
2019-05-21T21:21:37.844Z,15.50
2019-05-21T21:24:06.908Z,16.73
2019-05-21T21:26:35.673Z,18.37
2019-05-21T21:29:04.388Z,19.13
2019-05-21T21:31:33.188Z,17.47
2019-05-21T21:34:01.969Z,17.10
2019-05-21T21:36:30.762Z,16.53
2019-05-21T21:39:00.653Z,16.03
2019-05-21T21:41:29.840Z,15.63
2019-05-21T21:43:58.553Z,15.93
2019-05-21T21:46:27.300Z,15.40
2019-05-21T21:48:56.669Z,15.90
2019-05-21T21:51:25.652Z,16.00
2019-05-21T21:53:54.436Z,23.00
2019-05-21T21:56:23.452Z,18.00
2019-05-21T21:58:52.232Z,17.37
2019-05-21T22:01:28.069Z,16.27
2019-05-21T22:03:59.448Z,16.50
2019-05-21T22:06:30.375Z,13.83
2019-05-21T22:08:59.709Z,15.63
2019-05-21T22:11:29.081Z,17.37
2019-05-21T22:13:57.897Z,14.63
2019-05-21T22:16:26.615Z,19.07
2019-05-21T22:18:55.702Z,16.13
2019-05-21T22:21:24.491Z,16.83
2019-05-21T22:23:53.221Z,15.77
2019-05-21T22:26:21.976Z,17.33
2019-05-21T22:28:50.814Z,16.70
2019-05-21T22:31:19.610Z,17.00
2019-05-21T22:33:48.385Z,17.93
2019-05-21T22:36:17.162Z,17.17
2019-05-21T22:38:45.881Z,17.60
2019-05-21T22:41:14.585Z,17.53
2019-05-21T22:43:43.304Z,18.53
2019-05-21T22:46:12.078Z,15.80
2019-05-21T22:48:40.790Z,15.20
2019-05-21T22:51:09.769Z,18.57
2019-05-21T22:53:38.654Z,19.13
2019-05-21T22:56:07.706Z,17.27
2019-05-21T22:58:36.476Z,16.50
2019-05-21T23:01:07.023Z,16.13
2019-05-21T23:03:35.811Z,20.47
2019-05-21T23:06:04.514Z,16.33
2019-05-21T23:08:33.405Z,16.67
2019-05-21T23:11:02.110Z,17.00
2019-05-21T23:13:31.113Z,19.57
2019-05-21T23:15:59.842Z,18.00
2019-05-21T23:18:28.544Z,15.80
2019-05-21T23:20:58.912Z,18.20
2019-05-21T23:23:28.385Z,16.80
2019-05-21T23:25:58.321Z,16.60
2019-05-21T23:28:27.021Z,17.90
2019-05-21T23:30:55.921Z,17.70
2019-05-21T23:33:25.516Z,18.67
2019-05-21T23:35:54.414Z,16.47
2019-05-21T23:38:23.631Z,16.03
2019-05-21T23:40:52.329Z,19.57
2019-05-21T23:43:21.345Z,15.53
2019-05-21T23:45:50.244Z,16.37
2019-05-21T23:48:19.513Z,16.50
2019-05-21T23:50:48.604Z,16.83
2019-05-21T23:53:17.385Z,19.40
2019-05-21T23:55:46.652Z,19.30
2019-05-21T23:58:15.353Z,17.80
